createdAt,value
2022-07-29T00:02:25.331Z,62.61
2022-07-29T00:04:51.884Z,60.80
2022-07-29T00:07:18.483Z,62.83
2022-07-29T00:09:51.610Z,62.90
2022-07-29T00:12:25.382Z,61.18
2022-07-29T00:14:55.275Z,62.23
2022-07-29T00:17:21.912Z,62.24
2022-07-29T00:19:48.371Z,62.65
2022-07-29T00:22:15.008Z,62.47
2022-07-29T00:24:41.738Z,61.33
2022-07-29T00:27:08.179Z,62.79
2022-07-29T00:29:35.298Z,62.43
2022-07-29T00:32:03.018Z,61.23
2022-07-29T00:34:48.144Z,61.52
2022-07-29T00:37:14.627Z,62.35
2022-07-29T00:39:41.087Z,61.36
2022-07-29T00:42:08.814Z,62.56
2022-07-29T00:44:42.556Z,60.71
2022-07-29T00:47:11.446Z,61.93
2022-07-29T00:49:40.324Z,61.67
2022-07-29T00:52:08.343Z,62.66
2022-07-29T00:54:35.586Z,64.16
2022-07-29T00:57:07.208Z,63.12
2022-07-29T00:59:35.252Z,62.07
2022-07-29T01:02:05.595Z,63.77
2022-07-29T01:04:32.807Z,64.22
2022-07-29T01:07:01.468Z,62.69
2022-07-29T01:09:35.016Z,63.03
2022-07-29T01:12:16.062Z,62.91
2022-07-29T01:14:43.417Z,62.85
2022-07-29T01:17:27.873Z,61.64
2022-07-29T01:20:02.738Z,63.63
2022-07-29T01:22:36.182Z,63.57
2022-07-29T01:25:17.863Z,62.77
2022-07-29T01:27:56.410Z,63.98
2022-07-29T01:30:25.645Z,63.93
2022-07-29T01:32:57.144Z,65.17
2022-07-29T01:35:26.851Z,63.42
2022-07-29T01:38:02.603Z,62.93
2022-07-29T01:40:41.652Z,62.50
2022-07-29T01:43:14.118Z,62.16
2022-07-29T01:45:58.719Z,63.72
2022-07-29T01:48:48.200Z,64.23
2022-07-29T01:51:20.333Z,62.48
2022-07-29T01:53:57.325Z,62.79
2022-07-29T01:56:26.395Z,63.85
2022-07-29T01:58:54.444Z,63.08
2022-07-29T02:01:25.162Z,63.83
2022-07-29T02:03:54.017Z,62.48
2022-07-29T02:06:23.877Z,63.69
2022-07-29T02:08:53.704Z,63.71
2022-07-29T02:11:20.541Z,63.13
2022-07-29T02:13:48.395Z,63.67
2022-07-29T02:16:17.379Z,63.35
2022-07-29T02:18:46.587Z,63.93
2022-07-29T02:21:15.188Z,65.10
2022-07-29T02:23:45.207Z,65.54
2022-07-29T02:26:19.122Z,65.64
2022-07-29T02:28:47.472Z,67.89
2022-07-29T02:31:15.486Z,66.02
2022-07-29T02:33:43.843Z,65.33
2022-07-29T02:36:11.234Z,64.40
2022-07-29T02:38:51.223Z,64.94
2022-07-29T02:41:24.872Z,63.39
2022-07-29T02:43:56.183Z,64.29
2022-07-29T02:46:31.154Z,65.25
2022-07-29T02:49:10.235Z,64.03
2022-07-29T02:51:46.631Z,63.69
2022-07-29T02:54:21.935Z,63.95
2022-07-29T02:56:50.501Z,63.71
2022-07-29T02:59:21.980Z,64.90
2022-07-29T03:01:50.124Z,65.34
2022-07-29T03:04:20.588Z,64.62
2022-07-29T03:06:47.950Z,64.23
2022-07-29T03:09:14.982Z,64.96
2022-07-29T03:11:49.750Z,63.92
2022-07-29T03:14:18.842Z,64.05
2022-07-29T03:16:46.240Z,64.55
2022-07-29T03:19:13.230Z,63.87
2022-07-29T03:21:39.991Z,63.50
2022-07-29T03:24:10.544Z,63.50
2022-07-29T03:26:37.894Z,63.43
2022-07-29T03:29:04.424Z,63.41
2022-07-29T03:31:30.985Z,63.09
2022-07-29T03:33:58.447Z,63.33
2022-07-29T03:36:25.735Z,63.01
2022-07-29T03:38:53.112Z,63.89
2022-07-29T03:41:22.552Z,65.95
2022-07-29T03:43:52.360Z,66.96
2022-07-29T03:46:20.441Z,67.61
2022-07-29T03:48:51.627Z,70.66
2022-07-29T03:51:18.297Z,69.04
2022-07-29T03:53:59.547Z,71.87
2022-07-29T03:56:28.337Z,71.34
2022-07-29T03:58:55.687Z,70.67
2022-07-29T04:01:23.548Z,71.60
2022-07-29T04:03:50.594Z,71.97
2022-07-29T04:06:17.136Z,72.28
2022-07-29T04:08:43.589Z,71.68
2022-07-29T04:11:10.311Z,71.88
2022-07-29T04:13:36.761Z,72.05
2022-07-29T04:16:03.283Z,72.17
2022-07-29T04:18:29.900Z,72.96
2022-07-29T04:20:56.442Z,72.58
2022-07-29T04:23:22.907Z,71.69
2022-07-29T04:25:49.392Z,72.86
2022-07-29T04:28:15.843Z,72.12
2022-07-29T04:30:43.650Z,72.58
2022-07-29T04:33:10.247Z,73.30
2022-07-29T04:35:50.581Z,72.59
2022-07-29T04:38:18.962Z,73.76
2022-07-29T04:40:45.511Z,73.70
2022-07-29T04:43:14.347Z,73.32
2022-07-29T04:45:42.294Z,72.76
2022-07-29T04:48:09.036Z,73.41
2022-07-29T04:50:35.564Z,76.52
2022-07-29T04:53:02.212Z,79.16
2022-07-29T04:55:28.738Z,78.94
2022-07-29T04:57:55.224Z,80.93
2022-07-29T05:00:21.685Z,82.23
2022-07-29T05:02:54.757Z,84.02
2022-07-29T05:05:21.327Z,85.77
2022-07-29T05:07:47.804Z,81.52
2022-07-29T05:10:14.329Z,85.84
2022-07-29T05:12:40.786Z,83.32
2022-07-29T05:15:07.764Z,83.56
2022-07-29T05:17:37.650Z,85.51
2022-07-29T05:20:05.599Z,84.57
2022-07-29T05:22:32.058Z,84.50
2022-07-29T05:24:58.549Z,87.02
2022-07-29T05:27:25.156Z,85.43
2022-07-29T05:29:51.761Z,86.99
2022-07-29T05:32:18.692Z,87.86
2022-07-29T05:34:50.264Z,87.28
2022-07-29T05:37:19.761Z,85.89
2022-07-29T05:39:48.716Z,84.07
2022-07-29T05:42:17.295Z,83.08
2022-07-29T05:44:43.806Z,83.81
2022-07-29T05:47:10.277Z,85.63
2022-07-29T05:49:36.865Z,83.34
2022-07-29T05:52:03.991Z,84.85
2022-07-29T05:54:30.523Z,83.98
2022-07-29T05:56:57.179Z,83.50
2022-07-29T05:59:28.327Z,80.88
2022-07-29T06:01:58.079Z,81.30
2022-07-29T06:04:24.824Z,80.16
2022-07-29T06:06:51.374Z,82.21
2022-07-29T06:09:17.936Z,80.46
2022-07-29T06:11:44.657Z,84.10
2022-07-29T06:14:11.259Z,84.66
2022-07-29T06:16:37.990Z,82.46
2022-07-29T06:19:05.352Z,83.02
2022-07-29T06:21:31.849Z,82.46
2022-07-29T06:23:58.451Z,83.97
2022-07-29T06:26:30.773Z,84.21
2022-07-29T06:28:58.535Z,84.71
2022-07-29T06:31:25.111Z,84.62
2022-07-29T06:33:51.745Z,85.18
2022-07-29T06:36:22.876Z,83.45
2022-07-29T06:38:52.116Z,83.88
2022-07-29T06:41:19.050Z,85.33
2022-07-29T06:43:51.029Z,85.37
2022-07-29T06:46:22.224Z,83.81
2022-07-29T06:48:49.315Z,83.37
2022-07-29T06:51:17.353Z,82.47
2022-07-29T06:53:59.870Z,84.74
2022-07-29T06:56:40.255Z,84.30
2022-07-29T06:59:11.439Z,86.52
2022-07-29T07:01:40.559Z,85.94
2022-07-29T07:04:07.710Z,87.73
2022-07-29T07:06:34.401Z,92.85
2022-07-29T07:09:01.024Z,91.23
2022-07-29T07:11:27.772Z,91.67
2022-07-29T07:13:58.054Z,90.33
2022-07-29T07:16:27.473Z,90.53
2022-07-29T07:18:53.945Z,91.28
2022-07-29T07:21:20.722Z,90.51
2022-07-29T07:23:47.402Z,91.15
2022-07-29T07:26:14.275Z,94.11
2022-07-29T07:28:40.734Z,92.32
2022-07-29T07:31:07.235Z,92.99
2022-07-29T07:33:33.691Z,92.30
2022-07-29T07:36:00.188Z,91.33
2022-07-29T07:38:26.669Z,91.19
2022-07-29T07:40:53.274Z,94.32
2022-07-29T07:43:19.909Z,94.36
2022-07-29T07:45:46.457Z,95.64
2022-07-29T07:48:12.974Z,97.57
2022-07-29T07:50:39.509Z,99.93
2022-07-29T07:53:06.196Z,99.23
2022-07-29T07:55:53.484Z,100.00
2022-07-29T07:58:19.455Z,100.00
2022-07-29T08:00:45.972Z,100.00
2022-07-29T08:03:16.981Z,100.00
2022-07-29T08:05:44.704Z,100.00
2022-07-29T08:08:11.328Z,100.00
2022-07-29T08:10:53.019Z,100.00
2022-07-29T08:13:21.555Z,100.00
2022-07-29T08:15:48.636Z,100.00
2022-07-29T08:18:15.176Z,100.00
2022-07-29T08:20:41.739Z,100.00
2022-07-29T08:23:12.054Z,100.00
2022-07-29T08:25:42.455Z,100.00
2022-07-29T08:28:09.153Z,100.00
2022-07-29T08:30:35.837Z,100.00
2022-07-29T08:33:02.764Z,100.00
2022-07-29T08:35:34.811Z,100.00
2022-07-29T08:38:02.300Z,100.00
2022-07-29T08:40:30.622Z,100.00
2022-07-29T08:43:00.573Z,100.00
2022-07-29T08:45:29.054Z,100.00
2022-07-29T08:47:56.357Z,100.00
2022-07-29T08:50:22.895Z,100.00
2022-07-29T08:52:51.230Z,100.00
2022-07-29T08:55:21.339Z,100.00
2022-07-29T08:57:51.931Z,100.00
2022-07-29T09:00:23.278Z,100.00
2022-07-29T09:02:57.217Z,100.00
2022-07-29T09:05:25.142Z,100.00
2022-07-29T09:07:52.056Z,100.00
2022-07-29T09:10:18.647Z,100.00
2022-07-29T09:12:45.481Z,100.00
2022-07-29T09:15:12.043Z,100.00
2022-07-29T09:17:50.021Z,100.00
2022-07-29T09:20:19.507Z,100.00
2022-07-29T09:22:50.427Z,100.00
2022-07-29T09:25:34.319Z,100.00
2022-07-29T09:28:08.976Z,100.00
2022-07-29T09:30:36.513Z,100.00
2022-07-29T09:33:04.598Z,100.00
2022-07-29T09:35:31.863Z,100.00
2022-07-29T09:37:58.581Z,100.00
2022-07-29T09:40:27.949Z,100.00
2022-07-29T09:42:58.090Z,100.00
2022-07-29T09:45:32.782Z,100.00
2022-07-29T09:48:03.737Z,100.00
2022-07-29T09:50:41.111Z,100.00
2022-07-29T09:53:10.403Z,100.00
2022-07-29T09:55:48.291Z,100.00
2022-07-29T09:58:22.890Z,100.00
2022-07-29T10:00:51.256Z,100.00
2022-07-29T10:03:18.472Z,100.00
2022-07-29T10:05:46.031Z,100.00
2022-07-29T10:08:15.917Z,100.00
2022-07-29T10:10:43.671Z,100.00
2022-07-29T10:13:15.832Z,100.00
2022-07-29T10:15:46.069Z,100.00
2022-07-29T10:18:15.032Z,100.00
2022-07-29T10:20:42.239Z,100.00
2022-07-29T10:23:10.643Z,100.00
2022-07-29T10:25:37.163Z,100.00
2022-07-29T10:28:03.889Z,100.00
2022-07-29T10:30:30.503Z,100.00
2022-07-29T10:33:09.570Z,100.00
2022-07-29T10:36:12.815Z,100.00
2022-07-29T10:38:45.996Z,100.00
2022-07-29T10:41:53.785Z,100.00
2022-07-29T10:44:23.717Z,100.00
2022-07-29T10:46:51.812Z,100.00
2022-07-29T10:49:25.172Z,100.00
2022-07-29T10:52:00.118Z,100.00
2022-07-29T10:54:36.490Z,100.00
2022-07-29T10:57:53.121Z,100.00
2022-07-29T11:00:16.923Z,99.12
2022-07-29T11:02:45.393Z,100.00
2022-07-29T11:05:20.566Z,100.00
2022-07-29T11:08:20.317Z,100.00
2022-07-29T11:10:54.836Z,100.00
2022-07-29T11:13:48.946Z,100.00
2022-07-29T11:16:16.437Z,100.00
2022-07-29T11:19:26.341Z,97.41
2022-07-29T11:21:58.469Z,96.42
2022-07-29T11:24:31.956Z,97.06
2022-07-29T11:27:31.651Z,96.26
2022-07-29T11:30:03.309Z,93.38
2022-07-29T11:32:39.786Z,91.47
2022-07-29T11:35:19.010Z,92.50
2022-07-29T11:40:34.212Z,89.09
2022-07-29T11:43:00.711Z,89.93
2022-07-29T11:45:45.589Z,86.96
2022-07-29T11:48:29.012Z,88.99
2022-07-29T11:50:58.877Z,86.08
2022-07-29T11:53:25.794Z,82.81
2022-07-29T11:55:58.407Z,81.35
2022-07-29T11:58:26.275Z,83.36
2022-07-29T12:00:55.515Z,84.10
2022-07-29T12:03:32.828Z,82.54
2022-07-29T12:06:13.316Z,82.43
2022-07-29T12:08:44.331Z,82.83
2022-07-29T12:11:22.620Z,79.16
2022-07-29T12:13:53.906Z,80.42
2022-07-29T12:16:25.318Z,76.14
2022-07-29T12:19:00.825Z,73.97
2022-07-29T12:21:29.784Z,77.52
2022-07-29T12:24:03.405Z,71.47
2022-07-29T12:26:34.127Z,69.28
2022-07-29T12:29:03.187Z,71.47
2022-07-29T12:31:43.567Z,69.89
2022-07-29T12:34:12.904Z,70.39
2022-07-29T12:36:39.491Z,68.37
2022-07-29T12:39:06.239Z,71.63
2022-07-29T12:41:33.203Z,68.11
2022-07-29T12:43:59.746Z,65.40
2022-07-29T12:46:26.378Z,63.79
2022-07-29T12:48:59.555Z,63.09
2022-07-29T12:51:34.567Z,65.70
2022-07-29T12:54:11.208Z,60.83
2022-07-29T12:56:43.674Z,61.05
2022-07-29T12:59:21.575Z,61.57
2022-07-29T13:01:52.287Z,58.75
2022-07-29T13:04:27.861Z,62.90
2022-07-29T13:07:04.405Z,59.47
2022-07-29T13:09:48.632Z,59.73
2022-07-29T13:12:15.553Z,61.56
2022-07-29T13:14:47.050Z,58.45
2022-07-29T13:17:16.723Z,59.68
2022-07-29T13:19:44.651Z,58.02
2022-07-29T13:22:22.484Z,57.65
2022-07-29T13:24:53.882Z,57.54
2022-07-29T13:27:23.265Z,57.76
2022-07-29T13:29:52.168Z,57.06
2022-07-29T13:32:28.458Z,57.39
2022-07-29T13:35:05.473Z,55.51
2022-07-29T13:37:34.948Z,56.91
2022-07-29T13:40:03.993Z,57.07
2022-07-29T13:42:30.741Z,54.87
2022-07-29T13:44:57.288Z,55.54
2022-07-29T13:47:32.099Z,55.64
2022-07-29T13:50:00.880Z,56.93
2022-07-29T13:52:27.406Z,56.98
2022-07-29T13:54:53.893Z,57.33
2022-07-29T13:57:20.388Z,57.33
2022-07-29T13:59:51.864Z,57.91
2022-07-29T14:02:20.411Z,57.34
2022-07-29T14:04:47.086Z,58.22
2022-07-29T14:07:16.413Z,57.30
2022-07-29T14:09:43.292Z,58.69
2022-07-29T14:12:10.099Z,57.63
2022-07-29T14:14:37.619Z,55.97
2022-07-29T14:17:07.236Z,57.09
2022-07-29T14:19:36.572Z,55.59
2022-07-29T14:22:05.006Z,56.32
2022-07-29T14:24:32.183Z,55.08
2022-07-29T14:26:59.643Z,55.91
2022-07-29T14:29:37.228Z,56.93
2022-07-29T14:32:06.598Z,58.50
2022-07-29T14:34:34.365Z,59.29
2022-07-29T14:37:00.897Z,58.40
2022-07-29T14:39:31.829Z,56.56
2022-07-29T14:41:59.173Z,56.88
2022-07-29T14:44:31.822Z,58.64
2022-07-29T14:47:01.653Z,57.13
2022-07-29T14:49:35.020Z,57.37
2022-07-29T14:52:01.770Z,56.85
2022-07-29T14:54:28.351Z,56.23
2022-07-29T14:56:57.874Z,56.71
2022-07-29T14:59:24.578Z,57.67
2022-07-29T15:01:51.207Z,57.71
2022-07-29T15:04:17.694Z,58.90
2022-07-29T15:06:44.750Z,58.00
2022-07-29T15:09:11.534Z,58.30
2022-07-29T15:11:38.707Z,56.55
2022-07-29T15:14:06.692Z,55.63
2022-07-29T15:16:33.818Z,56.18
2022-07-29T15:19:01.264Z,55.43
2022-07-29T15:21:28.454Z,55.87
2022-07-29T15:23:54.975Z,56.39
2022-07-29T15:26:21.857Z,57.14
2022-07-29T15:28:49.100Z,56.26
2022-07-29T15:31:15.710Z,55.47
2022-07-29T15:33:42.303Z,54.02
2022-07-29T15:36:08.954Z,54.48
2022-07-29T15:38:35.547Z,56.38
2022-07-29T15:41:08.457Z,56.01
2022-07-29T15:43:36.133Z,56.18
2022-07-29T15:46:21.644Z,58.14
2022-07-29T15:48:48.238Z,56.89
2022-07-29T15:51:15.206Z,57.20
2022-07-29T15:53:41.712Z,56.36
2022-07-29T15:56:08.173Z,57.33
2022-07-29T15:58:34.640Z,56.05
2022-07-29T16:01:01.155Z,56.53
2022-07-29T16:03:27.650Z,57.20
2022-07-29T16:05:54.120Z,57.52
2022-07-29T16:08:20.652Z,55.46
2022-07-29T16:10:47.132Z,56.18
2022-07-29T16:13:16.942Z,54.96
2022-07-29T16:15:45.384Z,52.97
2022-07-29T16:18:30.066Z,52.90
2022-07-29T16:20:57.074Z,53.46
2022-07-29T16:23:24.619Z,52.86
2022-07-29T16:25:59.680Z,52.45
2022-07-29T16:28:27.432Z,51.64
2022-07-29T16:30:53.933Z,51.98
2022-07-29T16:33:20.447Z,52.49
2022-07-29T16:35:46.918Z,53.03
2022-07-29T16:38:13.604Z,52.46
2022-07-29T16:40:40.334Z,51.89
2022-07-29T16:43:06.872Z,51.92
2022-07-29T16:45:45.770Z,54.54
2022-07-29T16:48:13.807Z,53.62
2022-07-29T16:50:40.890Z,53.83
2022-07-29T16:53:10.247Z,50.95
2022-07-29T16:55:36.801Z,52.55
2022-07-29T16:58:03.312Z,50.65
2022-07-29T17:00:29.853Z,50.21
2022-07-29T17:02:56.398Z,49.38
2022-07-29T17:05:22.901Z,48.72
2022-07-29T17:07:49.898Z,49.22
2022-07-29T17:10:16.392Z,49.54
2022-07-29T17:12:42.908Z,50.19
2022-07-29T17:15:11.330Z,48.80
2022-07-29T17:17:55.090Z,47.83
2022-07-29T17:20:22.169Z,48.39
2022-07-29T17:22:48.616Z,48.40
2022-07-29T17:25:20.623Z,49.27
2022-07-29T17:27:49.584Z,49.29
2022-07-29T17:30:16.361Z,50.03
2022-07-29T17:32:42.837Z,50.75
2022-07-29T17:35:29.198Z,50.45
2022-07-29T17:37:55.826Z,52.37
2022-07-29T17:40:22.642Z,49.25
2022-07-29T17:42:49.224Z,50.92
2022-07-29T17:45:15.734Z,53.02
2022-07-29T17:47:42.253Z,54.10
2022-07-29T17:50:09.156Z,51.69
2022-07-29T17:52:35.680Z,51.72
2022-07-29T17:55:02.588Z,53.39
2022-07-29T17:57:29.126Z,56.38
2022-07-29T17:59:55.658Z,53.96
2022-07-29T18:02:22.258Z,53.25
2022-07-29T18:04:51.488Z,56.40
2022-07-29T18:07:18.537Z,55.88
2022-07-29T18:09:45.191Z,57.77
2022-07-29T18:12:11.725Z,57.88
2022-07-29T18:14:38.498Z,57.91
2022-07-29T18:17:05.006Z,57.41
2022-07-29T18:19:31.493Z,57.31
2022-07-29T18:22:03.219Z,56.65
2022-07-29T18:24:32.207Z,59.05
2022-07-29T18:26:58.922Z,59.43
2022-07-29T18:29:25.794Z,58.25
2022-07-29T18:31:52.279Z,59.11
2022-07-29T18:34:18.786Z,61.10
2022-07-29T18:36:46.164Z,61.84
2022-07-29T18:39:19.154Z,61.74
2022-07-29T18:41:50.762Z,63.02
2022-07-29T18:44:21.753Z,63.04
2022-07-29T18:46:48.771Z,62.48
2022-07-29T18:49:15.340Z,61.94
2022-07-29T18:51:41.926Z,64.20
2022-07-29T18:54:09.991Z,64.72
2022-07-29T18:56:37.245Z,64.97
2022-07-29T18:59:04.257Z,65.50
2022-07-29T19:01:31.739Z,66.79
2022-07-29T19:03:58.624Z,68.05
2022-07-29T19:06:25.927Z,69.87
2022-07-29T19:08:52.912Z,70.31
2022-07-29T19:11:19.385Z,70.05
2022-07-29T19:13:45.910Z,69.12
2022-07-29T19:16:14.083Z,70.59
2022-07-29T19:18:41.270Z,69.47
2022-07-29T19:21:07.806Z,69.90
2022-07-29T19:24:00.008Z,71.27
2022-07-29T19:26:20.981Z,70.92
2022-07-29T19:28:48.847Z,70.99
2022-07-29T19:31:15.960Z,70.76
2022-07-29T19:33:42.760Z,71.45
2022-07-29T19:36:09.485Z,71.83
2022-07-29T19:38:38.137Z,72.66
2022-07-29T19:41:06.131Z,73.75
2022-07-29T19:43:51.857Z,73.92
2022-07-29T19:46:19.705Z,73.44
2022-07-29T19:48:46.396Z,73.05
2022-07-29T19:51:13.038Z,74.26
2022-07-29T19:53:39.735Z,75.49
2022-07-29T19:56:08.940Z,76.14
2022-07-29T19:58:35.943Z,76.34
2022-07-29T20:01:02.956Z,77.56
2022-07-29T20:03:36.992Z,79.22
2022-07-29T20:06:03.626Z,80.41
2022-07-29T20:08:30.114Z,80.66
2022-07-29T20:10:56.775Z,80.95
2022-07-29T20:13:23.241Z,81.79
2022-07-29T20:15:49.770Z,81.50
2022-07-29T20:18:16.410Z,81.98
2022-07-29T20:20:43.401Z,82.86
2022-07-29T20:23:11.571Z,82.48
2022-07-29T20:25:39.276Z,84.27
2022-07-29T20:28:05.825Z,85.12
2022-07-29T20:30:32.353Z,85.43
2022-07-29T20:32:59.536Z,84.84
2022-07-29T20:35:27.972Z,86.22
2022-07-29T20:37:56.611Z,87.76
2022-07-29T20:40:27.110Z,88.80
2022-07-29T20:42:54.872Z,89.13
2022-07-29T20:45:23.412Z,87.89
2022-07-29T20:47:51.655Z,88.22
2022-07-29T20:50:19.011Z,87.97
2022-07-29T20:52:45.699Z,88.53
2022-07-29T20:55:12.282Z,88.47
2022-07-29T20:57:39.989Z,89.48
2022-07-29T21:00:07.653Z,89.41
2022-07-29T21:02:34.447Z,89.25
2022-07-29T21:05:01.102Z,89.38
2022-07-29T21:07:27.752Z,90.69
2022-07-29T21:09:54.227Z,90.68
2022-07-29T21:12:20.685Z,90.67
2022-07-29T21:14:47.998Z,90.40
2022-07-29T21:17:16.272Z,90.44
2022-07-29T21:19:43.160Z,90.78
2022-07-29T21:22:09.736Z,90.98
2022-07-29T21:24:36.277Z,91.42
2022-07-29T21:27:22.003Z,91.96
2022-07-29T21:29:48.842Z,92.08
2022-07-29T21:32:27.471Z,92.08
2022-07-29T21:34:56.395Z,92.16
2022-07-29T21:37:23.318Z,90.66
2022-07-29T21:39:49.870Z,88.85
2022-07-29T21:42:16.624Z,89.35
2022-07-29T21:44:43.160Z,88.38
2022-07-29T21:47:10.604Z,89.88
2022-07-29T21:49:37.291Z,89.02
2022-07-29T21:52:04.861Z,89.62
2022-07-29T21:54:31.481Z,90.13
2022-07-29T21:56:58.392Z,90.28
2022-07-29T21:59:24.953Z,89.70
2022-07-29T22:01:51.828Z,90.66
2022-07-29T22:04:18.521Z,91.39
2022-07-29T22:06:45.071Z,92.32
2022-07-29T22:09:11.588Z,91.81
2022-07-29T22:11:38.175Z,91.11
2022-07-29T22:14:05.684Z,91.86
2022-07-29T22:16:32.243Z,91.78
2022-07-29T22:18:58.739Z,91.97
2022-07-29T22:21:25.219Z,92.13
2022-07-29T22:23:51.724Z,93.10
2022-07-29T22:26:18.313Z,94.03
2022-07-29T22:28:44.762Z,94.71
2022-07-29T22:31:11.346Z,95.62
2022-07-29T22:33:38.160Z,96.56
2022-07-29T22:36:04.971Z,97.29
2022-07-29T22:38:31.439Z,97.13
2022-07-29T22:41:00.456Z,97.74
2022-07-29T22:43:27.347Z,97.28
2022-07-29T22:45:53.865Z,97.49
2022-07-29T22:48:20.353Z,97.91
2022-07-29T22:50:46.874Z,98.29
2022-07-29T22:53:13.376Z,97.81
2022-07-29T22:55:39.996Z,98.05
2022-07-29T22:58:06.657Z,97.86
2022-07-29T23:00:33.353Z,98.86
2022-07-29T23:02:59.851Z,99.70
2022-07-29T23:05:26.313Z,99.84
2022-07-29T23:07:52.803Z,99.76
2022-07-29T23:10:19.283Z,99.10
2022-07-29T23:12:45.756Z,98.35
2022-07-29T23:15:12.882Z,99.07
2022-07-29T23:17:39.367Z,99.00
2022-07-29T23:20:07.828Z,98.93
2022-07-29T23:22:35.831Z,98.68
2022-07-29T23:25:02.431Z,99.79
2022-07-29T23:27:28.883Z,100.00
2022-07-29T23:29:55.359Z,100.00
2022-07-29T23:32:21.803Z,100.00
2022-07-29T23:34:48.264Z,100.00
2022-07-29T23:37:14.708Z,100.00
2022-07-29T23:39:41.183Z,100.00
2022-07-29T23:42:07.660Z,100.00
2022-07-29T23:44:34.337Z,100.00
2022-07-29T23:47:00.938Z,100.00
2022-07-29T23:49:27.614Z,100.00
2022-07-29T23:51:54.080Z,100.00
2022-07-29T23:54:20.540Z,100.00
2022-07-29T23:56:46.976Z,100.00
2022-07-29T23:59:13.452Z,100.00
